sensor_id;sensor_type;location;lat;lon;timestamp;P1;durP1;ratioP1;P2;durP2;ratioP2
69623;SDS011;56843;52.020;5.670;2022-11-20T00:00:53;4.47;;;1.87;;
69623;SDS011;56843;52.020;5.670;2022-11-20T00:02:24;2.85;;;0.82;;
69623;SDS011;56843;52.020;5.670;2022-11-20T00:03:55;0.80;;;0.30;;
69623;SDS011;56843;52.020;5.670;2022-11-20T00:05:27;1.30;;;0.68;;
69623;SDS011;56843;52.020;5.670;2022-11-20T00:06:58;6.57;;;3.10;;
69623;SDS011;56843;52.020;5.670;2022-11-20T00:08:28;8.73;;;3.58;;
69623;SDS011;56843;52.020;5.670;2022-11-20T00:09:59;9.67;;;3.43;;
69623;SDS011;56843;52.020;5.670;2022-11-20T00:11:30;4.50;;;1.80;;
69623;SDS011;56843;52.020;5.670;2022-11-20T00:13:01;5.50;;;2.50;;
69623;SDS011;56843;52.020;5.670;2022-11-20T00:14:32;6.53;;;2.80;;
69623;SDS011;56843;52.020;5.670;2022-11-20T00:16:03;6.33;;;2.93;;
69623;SDS011;56843;52.020;5.670;2022-11-20T00:17:35;3.45;;;1.60;;
69623;SDS011;56843;52.020;5.670;2022-11-20T00:19:05;6.67;;;2.30;;
69623;SDS011;56843;52.020;5.670;2022-11-20T00:20:36;4.03;;;1.67;;
69623;SDS011;56843;52.020;5.670;2022-11-20T00:22:06;4.78;;;1.83;;
69623;SDS011;56843;52.020;5.670;2022-11-20T00:23:37;1.03;;;0.43;;
69623;SDS011;56843;52.020;5.670;2022-11-20T00:25:07;5.20;;;1.83;;
69623;SDS011;56843;52.020;5.670;2022-11-20T00:26:38;4.95;;;2.05;;
69623;SDS011;56843;52.020;5.670;2022-11-20T00:28:08;10.80;;;3.37;;
69623;SDS011;56843;52.020;5.670;2022-11-20T00:29:39;8.27;;;3.23;;
69623;SDS011;56843;52.020;5.670;2022-11-20T00:31:13;7.33;;;2.60;;
69623;SDS011;56843;52.020;5.670;2022-11-20T00:32:45;10.98;;;4.30;;
69623;SDS011;56843;52.020;5.670;2022-11-20T00:34:15;6.67;;;3.13;;
69623;SDS011;56843;52.020;5.670;2022-11-20T00:35:46;7.90;;;3.17;;
69623;SDS011;56843;52.020;5.670;2022-11-20T00:37:16;10.67;;;3.20;;
69623;SDS011;56843;52.020;5.670;2022-11-20T00:38:50;7.87;;;3.00;;
69623;SDS011;56843;52.020;5.670;2022-11-20T00:40:25;6.15;;;2.75;;
69623;SDS011;56843;52.020;5.670;2022-11-20T00:41:55;6.27;;;1.77;;
69623;SDS011;56843;52.020;5.670;2022-11-20T00:43:26;7.80;;;2.10;;
69623;SDS011;56843;52.020;5.670;2022-11-20T00:44:57;10.25;;;2.13;;
69623;SDS011;56843;52.020;5.670;2022-11-20T00:46:28;4.57;;;1.85;;
69623;SDS011;56843;52.020;5.670;2022-11-20T00:47:58;9.23;;;3.10;;
69623;SDS011;56843;52.020;5.670;2022-11-20T00:49:29;6.22;;;2.55;;
69623;SDS011;56843;52.020;5.670;2022-11-20T00:51:00;6.83;;;3.37;;
69623;SDS011;56843;52.020;5.670;2022-11-20T00:52:30;9.60;;;4.45;;
69623;SDS011;56843;52.020;5.670;2022-11-20T00:54:01;7.33;;;2.57;;
69623;SDS011;56843;52.020;5.670;2022-11-20T00:55:32;7.30;;;3.10;;
69623;SDS011;56843;52.020;5.670;2022-11-20T00:57:02;9.97;;;3.57;;
69623;SDS011;56843;52.020;5.670;2022-11-20T00:58:34;13.20;;;3.08;;
69623;SDS011;56843;52.020;5.670;2022-11-20T01:00:05;10.43;;;3.43;;
69623;SDS011;56843;52.020;5.670;2022-11-20T01:01:36;8.98;;;3.22;;
69623;SDS011;56843;52.020;5.670;2022-11-20T01:03:07;7.28;;;2.33;;
69623;SDS011;56843;52.020;5.670;2022-11-20T01:04:38;4.90;;;2.20;;
69623;SDS011;56843;52.020;5.670;2022-11-20T01:06:30;7.68;;;1.95;;
69623;SDS011;56843;52.020;5.670;2022-11-20T01:08:01;2.67;;;1.23;;
69623;SDS011;56843;52.020;5.670;2022-11-20T01:09:31;6.00;;;1.38;;
69623;SDS011;56843;52.020;5.670;2022-11-20T01:11:06;4.70;;;1.70;;
69623;SDS011;56843;52.020;5.670;2022-11-20T01:12:38;4.75;;;1.88;;
69623;SDS011;56843;52.020;5.670;2022-11-20T01:14:10;7.95;;;2.95;;
69623;SDS011;56843;52.020;5.670;2022-11-20T01:15:42;3.13;;;1.40;;
69623;SDS011;56843;52.020;5.670;2022-11-20T01:17:13;7.22;;;2.78;;
69623;SDS011;56843;52.020;5.670;2022-11-20T01:18:44;7.20;;;2.07;;
69623;SDS011;56843;52.020;5.670;2022-11-20T01:20:16;5.45;;;2.30;;
69623;SDS011;56843;52.020;5.670;2022-11-20T01:21:48;3.93;;;1.57;;
69623;SDS011;56843;52.020;5.670;2022-11-20T01:23:20;4.15;;;1.85;;
69623;SDS011;56843;52.020;5.670;2022-11-20T01:24:50;2.38;;;0.95;;
69623;SDS011;56843;52.020;5.670;2022-11-20T01:26:23;2.80;;;1.20;;
69623;SDS011;56843;52.020;5.670;2022-11-20T01:27:55;6.10;;;2.15;;
69623;SDS011;56843;52.020;5.670;2022-11-20T01:29:25;3.63;;;1.40;;
69623;SDS011;56843;52.020;5.670;2022-11-20T01:30:56;6.30;;;2.70;;
69623;SDS011;56843;52.020;5.670;2022-11-20T01:32:27;5.88;;;2.30;;
69623;SDS011;56843;52.020;5.670;2022-11-20T01:33:59;2.23;;;1.00;;
69623;SDS011;56843;52.020;5.670;2022-11-20T01:35:33;0.70;;;0.23;;
69623;SDS011;56843;52.020;5.670;2022-11-20T01:37:04;1.50;;;0.50;;
69623;SDS011;56843;52.020;5.670;2022-11-20T01:38:34;6.37;;;2.50;;
69623;SDS011;56843;52.020;5.670;2022-11-20T01:40:05;3.42;;;1.65;;
69623;SDS011;56843;52.020;5.670;2022-11-20T01:41:36;9.57;;;2.17;;
69623;SDS011;56843;52.020;5.670;2022-11-20T01:43:26;3.70;;;1.45;;
69623;SDS011;56843;52.020;5.670;2022-11-20T01:44:57;6.07;;;2.20;;
69623;SDS011;56843;52.020;5.670;2022-11-20T01:46:30;4.72;;;1.80;;
69623;SDS011;56843;52.020;5.670;2022-11-20T01:48:05;6.13;;;2.78;;
69623;SDS011;56843;52.020;5.670;2022-11-20T01:49:39;6.95;;;2.58;;
69623;SDS011;56843;52.020;5.670;2022-11-20T01:51:15;9.90;;;3.50;;
69623;SDS011;56843;52.020;5.670;2022-11-20T01:53:10;8.18;;;2.15;;
69623;SDS011;56843;52.020;5.670;2022-11-20T01:56:54;5.67;;;2.53;;
69623;SDS011;56843;52.020;5.670;2022-11-20T01:58:28;8.80;;;3.10;;
69623;SDS011;56843;52.020;5.670;2022-11-20T02:00:05;5.60;;;2.67;;
69623;SDS011;56843;52.020;5.670;2022-11-20T02:03:56;5.25;;;1.52;;
69623;SDS011;56843;52.020;5.670;2022-11-20T02:05:32;6.97;;;2.53;;
69623;SDS011;56843;52.020;5.670;2022-11-20T02:07:08;6.68;;;2.63;;
69623;SDS011;56843;52.020;5.670;2022-11-20T02:08:39;3.77;;;1.47;;
69623;SDS011;56843;52.020;5.670;2022-11-20T02:10:10;4.35;;;1.85;;
69623;SDS011;56843;52.020;5.670;2022-11-20T02:11:41;8.50;;;3.17;;
69623;SDS011;56843;52.020;5.670;2022-11-20T02:13:12;4.87;;;1.70;;
69623;SDS011;56843;52.020;5.670;2022-11-20T02:15:01;1.30;;;0.68;;
69623;SDS011;56843;52.020;5.670;2022-11-20T02:16:39;1.13;;;0.43;;
69623;SDS011;56843;52.020;5.670;2022-11-20T02:18:16;6.43;;;2.85;;
69623;SDS011;56843;52.020;5.670;2022-11-20T02:19:48;5.90;;;2.42;;
69623;SDS011;56843;52.020;5.670;2022-11-20T02:21:31;6.20;;;2.47;;
69623;SDS011;56843;52.020;5.670;2022-11-20T02:24:40;6.45;;;2.40;;
69623;SDS011;56843;52.020;5.670;2022-11-20T02:26:14;6.32;;;2.67;;
69623;SDS011;56843;52.020;5.670;2022-11-20T02:27:46;10.82;;;2.70;;
69623;SDS011;56843;52.020;5.670;2022-11-20T02:29:19;8.48;;;2.47;;
69623;SDS011;56843;52.020;5.670;2022-11-20T02:30:53;7.10;;;2.27;;
69623;SDS011;56843;52.020;5.670;2022-11-20T02:32:28;8.17;;;2.83;;
69623;SDS011;56843;52.020;5.670;2022-11-20T02:34:00;9.38;;;3.38;;
69623;SDS011;56843;52.020;5.670;2022-11-20T02:37:01;5.90;;;2.60;;
69623;SDS011;56843;52.020;5.670;2022-11-20T02:38:32;7.05;;;2.80;;
69623;SDS011;56843;52.020;5.670;2022-11-20T02:40:03;5.47;;;1.87;;
69623;SDS011;56843;52.020;5.670;2022-11-20T02:41:34;7.10;;;2.80;;
69623;SDS011;56843;52.020;5.670;2022-11-20T02:43:06;4.30;;;1.65;;
69623;SDS011;56843;52.020;5.670;2022-11-20T02:44:37;3.97;;;1.95;;
69623;SDS011;56843;52.020;5.670;2022-11-20T02:46:08;1.87;;;0.63;;
69623;SDS011;56843;52.020;5.670;2022-11-20T02:47:38;3.13;;;1.50;;
69623;SDS011;56843;52.020;5.670;2022-11-20T02:49:09;1.23;;;0.50;;
69623;SDS011;56843;52.020;5.670;2022-11-20T02:50:40;5.90;;;1.40;;
69623;SDS011;56843;52.020;5.670;2022-11-20T02:52:10;5.70;;;1.93;;
69623;SDS011;56843;52.020;5.670;2022-11-20T02:53:41;4.47;;;2.17;;
69623;SDS011;56843;52.020;5.670;2022-11-20T02:55:11;4.95;;;2.08;;
69623;SDS011;56843;52.020;5.670;2022-11-20T02:56:42;4.28;;;1.80;;
69623;SDS011;56843;52.020;5.670;2022-11-20T02:58:13;5.87;;;1.50;;
69623;SDS011;56843;52.020;5.670;2022-11-20T02:59:44;5.65;;;2.25;;
69623;SDS011;56843;52.020;5.670;2022-11-20T03:01:14;1.37;;;0.60;;
69623;SDS011;56843;52.020;5.670;2022-11-20T03:02:45;3.35;;;1.60;;
69623;SDS011;56843;52.020;5.670;2022-11-20T03:04:15;9.00;;;3.27;;
69623;SDS011;56843;52.020;5.670;2022-11-20T03:05:46;6.60;;;2.85;;
69623;SDS011;56843;52.020;5.670;2022-11-20T03:07:17;5.80;;;2.43;;
69623;SDS011;56843;52.020;5.670;2022-11-20T03:08:47;15.73;;;3.87;;
69623;SDS011;56843;52.020;5.670;2022-11-20T03:10:18;4.70;;;2.20;;
69623;SDS011;56843;52.020;5.670;2022-11-20T03:11:49;1.97;;;0.70;;
69623;SDS011;56843;52.020;5.670;2022-11-20T03:13:21;4.15;;;1.33;;
69623;SDS011;56843;52.020;5.670;2022-11-20T03:14:52;7.40;;;2.47;;
69623;SDS011;56843;52.020;5.670;2022-11-20T03:16:26;2.75;;;0.88;;
69623;SDS011;56843;52.020;5.670;2022-11-20T03:17:56;1.57;;;0.63;;
69623;SDS011;56843;52.020;5.670;2022-11-20T03:19:27;1.02;;;0.52;;
69623;SDS011;56843;52.020;5.670;2022-11-20T03:21:00;4.95;;;1.33;;
69623;SDS011;56843;52.020;5.670;2022-11-20T03:22:31;4.30;;;1.27;;
69623;SDS011;56843;52.020;5.670;2022-11-20T03:24:02;6.97;;;2.92;;
69623;SDS011;56843;52.020;5.670;2022-11-20T03:25:33;9.47;;;3.53;;
69623;SDS011;56843;52.020;5.670;2022-11-20T03:27:03;8.55;;;2.97;;
69623;SDS011;56843;52.020;5.670;2022-11-20T03:28:34;6.13;;;2.33;;
69623;SDS011;56843;52.020;5.670;2022-11-20T03:30:05;5.32;;;1.92;;
69623;SDS011;56843;52.020;5.670;2022-11-20T03:31:37;5.85;;;2.22;;
69623;SDS011;56843;52.020;5.670;2022-11-20T03:33:12;5.75;;;2.42;;
69623;SDS011;56843;52.020;5.670;2022-11-20T03:34:42;4.53;;;1.93;;
69623;SDS011;56843;52.020;5.670;2022-11-20T03:36:14;5.82;;;2.47;;
69623;SDS011;56843;52.020;5.670;2022-11-20T03:37:45;6.75;;;2.25;;
69623;SDS011;56843;52.020;5.670;2022-11-20T03:39:16;10.23;;;3.00;;
69623;SDS011;56843;52.020;5.670;2022-11-20T03:40:46;5.03;;;2.10;;
69623;SDS011;56843;52.020;5.670;2022-11-20T03:42:18;4.38;;;1.83;;
69623;SDS011;56843;52.020;5.670;2022-11-20T03:44:08;6.00;;;2.47;;
69623;SDS011;56843;52.020;5.670;2022-11-20T03:45:40;11.85;;;3.47;;
69623;SDS011;56843;52.020;5.670;2022-11-20T03:47:11;15.53;;;5.00;;
69623;SDS011;56843;52.020;5.670;2022-11-20T03:48:41;6.17;;;2.47;;
69623;SDS011;56843;52.020;5.670;2022-11-20T03:50:12;6.00;;;2.30;;
69623;SDS011;56843;52.020;5.670;2022-11-20T03:51:44;6.82;;;2.60;;
69623;SDS011;56843;52.020;5.670;2022-11-20T03:53:15;6.10;;;2.47;;
69623;SDS011;56843;52.020;5.670;2022-11-20T03:54:46;6.65;;;2.45;;
69623;SDS011;56843;52.020;5.670;2022-11-20T03:56:17;6.23;;;2.47;;
69623;SDS011;56843;52.020;5.670;2022-11-20T03:57:49;7.57;;;2.72;;
69623;SDS011;56843;52.020;5.670;2022-11-20T03:59:20;11.00;;;3.63;;
69623;SDS011;56843;52.020;5.670;2022-11-20T04:00:50;6.40;;;1.42;;
69623;SDS011;56843;52.020;5.670;2022-11-20T04:02:20;3.07;;;1.20;;
69623;SDS011;56843;52.020;5.670;2022-11-20T04:03:52;0.70;;;0.30;;
69623;SDS011;56843;52.020;5.670;2022-11-20T04:05:24;1.37;;;0.50;;
69623;SDS011;56843;52.020;5.670;2022-11-20T04:06:54;2.35;;;0.73;;
69623;SDS011;56843;52.020;5.670;2022-11-20T04:08:25;6.27;;;2.33;;
69623;SDS011;56843;52.020;5.670;2022-11-20T04:09:55;3.33;;;1.73;;
69623;SDS011;56843;52.020;5.670;2022-11-20T04:11:27;8.27;;;3.47;;
69623;SDS011;56843;52.020;5.670;2022-11-20T04:12:59;8.98;;;2.83;;
69623;SDS011;56843;52.020;5.670;2022-11-20T04:14:29;6.73;;;2.93;;
69623;SDS011;56843;52.020;5.670;2022-11-20T04:16:00;7.70;;;2.80;;
69623;SDS011;56843;52.020;5.670;2022-11-20T04:17:30;5.00;;;1.70;;
69623;SDS011;56843;52.020;5.670;2022-11-20T04:19:02;3.03;;;1.43;;
69623;SDS011;56843;52.020;5.670;2022-11-20T04:20:34;5.60;;;2.15;;
69623;SDS011;56843;52.020;5.670;2022-11-20T04:22:05;7.47;;;2.97;;
69623;SDS011;56843;52.020;5.670;2022-11-20T04:23:36;9.53;;;3.07;;
69623;SDS011;56843;52.020;5.670;2022-11-20T04:25:06;6.45;;;2.60;;
69623;SDS011;56843;52.020;5.670;2022-11-20T04:26:37;6.27;;;1.87;;
69623;SDS011;56843;52.020;5.670;2022-11-20T04:28:09;5.10;;;2.00;;
69623;SDS011;56843;52.020;5.670;2022-11-20T04:29:39;5.25;;;2.42;;
69623;SDS011;56843;52.020;5.670;2022-11-20T04:31:11;7.30;;;3.27;;
69623;SDS011;56843;52.020;5.670;2022-11-20T04:32:43;6.93;;;2.63;;
69623;SDS011;56843;52.020;5.670;2022-11-20T04:34:14;15.70;;;3.73;;
69623;SDS011;56843;52.020;5.670;2022-11-20T04:35:44;5.23;;;1.97;;
69623;SDS011;56843;52.020;5.670;2022-11-20T04:37:17;1.48;;;0.65;;
69623;SDS011;56843;52.020;5.670;2022-11-20T04:38:52;5.23;;;2.30;;
69623;SDS011;56843;52.020;5.670;2022-11-20T04:40:23;9.83;;;3.37;;
69623;SDS011;56843;52.020;5.670;2022-11-20T04:41:54;5.10;;;1.83;;
69623;SDS011;56843;52.020;5.670;2022-11-20T04:43:51;1.02;;;0.40;;
69623;SDS011;56843;52.020;5.670;2022-11-20T04:45:28;8.00;;;2.60;;
69623;SDS011;56843;52.020;5.670;2022-11-20T04:46:59;5.83;;;2.43;;
69623;SDS011;56843;52.020;5.670;2022-11-20T04:48:29;6.50;;;2.47;;
69623;SDS011;56843;52.020;5.670;2022-11-20T04:50:00;8.32;;;2.92;;
69623;SDS011;56843;52.020;5.670;2022-11-20T04:51:30;6.50;;;2.80;;
69623;SDS011;56843;52.020;5.670;2022-11-20T04:53:01;7.22;;;2.22;;
69623;SDS011;56843;52.020;5.670;2022-11-20T04:54:32;6.30;;;2.27;;
69623;SDS011;56843;52.020;5.670;2022-11-20T04:56:03;7.43;;;3.20;;
69623;SDS011;56843;52.020;5.670;2022-11-20T04:57:35;1.75;;;0.50;;
69623;SDS011;56843;52.020;5.670;2022-11-20T04:59:06;3.87;;;1.80;;
69623;SDS011;56843;52.020;5.670;2022-11-20T05:00:36;0.80;;;0.30;;
69623;SDS011;56843;52.020;5.670;2022-11-20T05:02:07;2.17;;;1.10;;
69623;SDS011;56843;52.020;5.670;2022-11-20T05:03:38;6.25;;;2.22;;
69623;SDS011;56843;52.020;5.670;2022-11-20T05:05:09;8.80;;;3.63;;
69623;SDS011;56843;52.020;5.670;2022-11-20T05:06:40;6.38;;;2.58;;
69623;SDS011;56843;52.020;5.670;2022-11-20T05:08:10;9.27;;;3.00;;
69623;SDS011;56843;52.020;5.670;2022-11-20T05:09:41;6.95;;;2.15;;
69623;SDS011;56843;52.020;5.670;2022-11-20T05:11:12;1.40;;;0.70;;
69623;SDS011;56843;52.020;5.670;2022-11-20T05:12:45;4.90;;;2.03;;
69623;SDS011;56843;52.020;5.670;2022-11-20T05:14:15;9.73;;;2.37;;
69623;SDS011;56843;52.020;5.670;2022-11-20T05:15:46;3.65;;;1.30;;
69623;SDS011;56843;52.020;5.670;2022-11-20T05:17:19;5.83;;;2.63;;
69623;SDS011;56843;52.020;5.670;2022-11-20T05:18:50;6.70;;;2.00;;
69623;SDS011;56843;52.020;5.670;2022-11-20T05:20:21;3.63;;;1.45;;
69623;SDS011;56843;52.020;5.670;2022-11-20T05:21:52;3.07;;;1.20;;
69623;SDS011;56843;52.020;5.670;2022-11-20T05:23:23;5.57;;;2.50;;
69623;SDS011;56843;52.020;5.670;2022-11-20T05:24:54;2.92;;;1.40;;
69623;SDS011;56843;52.020;5.670;2022-11-20T05:26:24;0.90;;;0.40;;
69623;SDS011;56843;52.020;5.670;2022-11-20T05:27:55;1.33;;;0.73;;
69623;SDS011;56843;52.020;5.670;2022-11-20T05:29:25;6.10;;;2.10;;
69623;SDS011;56843;52.020;5.670;2022-11-20T05:31:03;4.53;;;1.75;;
69623;SDS011;56843;52.020;5.670;2022-11-20T05:32:34;1.45;;;0.70;;
69623;SDS011;56843;52.020;5.670;2022-11-20T05:34:04;6.70;;;2.17;;
69623;SDS011;56843;52.020;5.670;2022-11-20T05:35:35;3.37;;;1.23;;
69623;SDS011;56843;52.020;5.670;2022-11-20T05:37:06;4.18;;;1.60;;
69623;SDS011;56843;52.020;5.670;2022-11-20T05:38:37;4.00;;;2.13;;
69623;SDS011;56843;52.020;5.670;2022-11-20T05:40:08;4.05;;;1.73;;
69623;SDS011;56843;52.020;5.670;2022-11-20T05:41:39;9.98;;;3.97;;
69623;SDS011;56843;52.020;5.670;2022-11-20T05:43:10;3.50;;;2.00;;
69623;SDS011;56843;52.020;5.670;2022-11-20T05:44:40;4.15;;;1.63;;
69623;SDS011;56843;52.020;5.670;2022-11-20T05:46:12;3.57;;;2.00;;
69623;SDS011;56843;52.020;5.670;2022-11-20T05:47:44;1.05;;;0.30;;
69623;SDS011;56843;52.020;5.670;2022-11-20T05:49:14;2.17;;;1.10;;
69623;SDS011;56843;52.020;5.670;2022-11-20T05:50:45;2.97;;;1.53;;
69623;SDS011;56843;52.020;5.670;2022-11-20T05:52:15;8.20;;;2.33;;
69623;SDS011;56843;52.020;5.670;2022-11-20T05:53:46;2.70;;;0.93;;
69623;SDS011;56843;52.020;5.670;2022-11-20T05:55:16;5.10;;;1.83;;
69623;SDS011;56843;52.020;5.670;2022-11-20T05:56:47;7.37;;;2.80;;
69623;SDS011;56843;52.020;5.670;2022-11-20T05:58:17;6.35;;;2.75;;
69623;SDS011;56843;52.020;5.670;2022-11-20T05:59:48;5.47;;;2.73;;
69623;SDS011;56843;52.020;5.670;2022-11-20T06:01:22;1.23;;;0.50;;
69623;SDS011;56843;52.020;5.670;2022-11-20T06:02:55;2.53;;;1.25;;
69623;SDS011;56843;52.020;5.670;2022-11-20T06:04:25;3.42;;;1.58;;
69623;SDS011;56843;52.020;5.670;2022-11-20T06:05:58;11.97;;;2.60;;
69623;SDS011;56843;52.020;5.670;2022-11-20T06:07:29;16.50;;;3.03;;
69623;SDS011;56843;52.020;5.670;2022-11-20T06:09:00;9.18;;;8.35;;
69623;SDS011;56843;52.020;5.670;2022-11-20T06:10:30;1.50;;;0.43;;
69623;SDS011;56843;52.020;5.670;2022-11-20T06:12:01;5.77;;;2.13;;
69623;SDS011;56843;52.020;5.670;2022-11-20T06:13:31;12.15;;;4.97;;
69623;SDS011;56843;52.020;5.670;2022-11-20T06:15:03;9.30;;;3.33;;
69623;SDS011;56843;52.020;5.670;2022-11-20T06:16:34;8.18;;;3.00;;
69623;SDS011;56843;52.020;5.670;2022-11-20T06:18:05;3.50;;;1.65;;
69623;SDS011;56843;52.020;5.670;2022-11-20T06:19:36;5.50;;;2.47;;
69623;SDS011;56843;52.020;5.670;2022-11-20T06:21:07;6.40;;;2.27;;
69623;SDS011;56843;52.020;5.670;2022-11-20T06:22:39;9.10;;;3.03;;
69623;SDS011;56843;52.020;5.670;2022-11-20T06:24:10;6.20;;;2.33;;
69623;SDS011;56843;52.020;5.670;2022-11-20T06:25:41;5.28;;;1.75;;
69623;SDS011;56843;52.020;5.670;2022-11-20T06:27:13;9.30;;;3.60;;
69623;SDS011;56843;52.020;5.670;2022-11-20T06:28:43;7.00;;;3.15;;
69623;SDS011;56843;52.020;5.670;2022-11-20T06:30:17;8.13;;;1.80;;
69623;SDS011;56843;52.020;5.670;2022-11-20T06:31:48;6.60;;;2.93;;
69623;SDS011;56843;52.020;5.670;2022-11-20T06:33:21;6.05;;;1.85;;
69623;SDS011;56843;52.020;5.670;2022-11-20T06:34:55;9.43;;;2.80;;
69623;SDS011;56843;52.020;5.670;2022-11-20T06:36:25;7.67;;;3.23;;
69623;SDS011;56843;52.020;5.670;2022-11-20T06:37:56;3.65;;;1.85;;
69623;SDS011;56843;52.020;5.670;2022-11-20T06:39:29;6.32;;;2.60;;
69623;SDS011;56843;52.020;5.670;2022-11-20T06:41:00;10.37;;;3.70;;
69623;SDS011;56843;52.020;5.670;2022-11-20T06:42:31;6.43;;;3.15;;
69623;SDS011;56843;52.020;5.670;2022-11-20T06:44:03;3.78;;;0.88;;
69623;SDS011;56843;52.020;5.670;2022-11-20T06:45:35;3.55;;;1.55;;
69623;SDS011;56843;52.020;5.670;2022-11-20T06:47:06;8.80;;;2.65;;
69623;SDS011;56843;52.020;5.670;2022-11-20T06:48:37;9.83;;;4.00;;
69623;SDS011;56843;52.020;5.670;2022-11-20T06:50:08;6.07;;;3.17;;
69623;SDS011;56843;52.020;5.670;2022-11-20T06:51:38;0.98;;;0.45;;
69623;SDS011;56843;52.020;5.670;2022-11-20T06:53:09;8.07;;;2.63;;
69623;SDS011;56843;52.020;5.670;2022-11-20T06:54:40;3.10;;;1.27;;
69623;SDS011;56843;52.020;5.670;2022-11-20T06:56:10;1.00;;;0.40;;
69623;SDS011;56843;52.020;5.670;2022-11-20T06:57:41;0.77;;;0.30;;
69623;SDS011;56843;52.020;5.670;2022-11-20T06:59:11;11.57;;;3.83;;
69623;SDS011;56843;52.020;5.670;2022-11-20T07:00:44;8.00;;;3.47;;
69623;SDS011;56843;52.020;5.670;2022-11-20T07:02:15;5.43;;;2.33;;
69623;SDS011;56843;52.020;5.670;2022-11-20T07:03:48;6.67;;;2.43;;
69623;SDS011;56843;52.020;5.670;2022-11-20T07:05:19;9.85;;;3.50;;
69623;SDS011;56843;52.020;5.670;2022-11-20T07:06:49;10.13;;;4.57;;
69623;SDS011;56843;52.020;5.670;2022-11-20T07:08:20;1.07;;;0.53;;
69623;SDS011;56843;52.020;5.670;2022-11-20T07:09:50;5.20;;;1.65;;
69623;SDS011;56843;52.020;5.670;2022-11-20T07:11:21;1.27;;;0.60;;
69623;SDS011;56843;52.020;5.670;2022-11-20T07:12:52;12.73;;;4.53;;
69623;SDS011;56843;52.020;5.670;2022-11-20T07:14:23;11.27;;;4.03;;
69623;SDS011;56843;52.020;5.670;2022-11-20T07:15:54;9.73;;;3.25;;
69623;SDS011;56843;52.020;5.670;2022-11-20T07:17:25;0.40;;;0.20;;
69623;SDS011;56843;52.020;5.670;2022-11-20T07:18:56;8.35;;;3.40;;
69623;SDS011;56843;52.020;5.670;2022-11-20T07:20:29;11.88;;;5.20;;
69623;SDS011;56843;52.020;5.670;2022-11-20T07:22:02;3.20;;;1.57;;
69623;SDS011;56843;52.020;5.670;2022-11-20T07:23:32;13.00;;;4.00;;
69623;SDS011;56843;52.020;5.670;2022-11-20T07:25:06;1.87;;;0.50;;
69623;SDS011;56843;52.020;5.670;2022-11-20T07:26:38;6.65;;;2.67;;
69623;SDS011;56843;52.020;5.670;2022-11-20T07:28:08;10.30;;;3.42;;
69623;SDS011;56843;52.020;5.670;2022-11-20T07:29:40;11.07;;;3.72;;
69623;SDS011;56843;52.020;5.670;2022-11-20T07:31:11;7.47;;;2.33;;
69623;SDS011;56843;52.020;5.670;2022-11-20T07:32:46;5.35;;;2.03;;
69623;SDS011;56843;52.020;5.670;2022-11-20T07:34:17;1.80;;;0.87;;
69623;SDS011;56843;52.020;5.670;2022-11-20T07:35:48;1.95;;;0.73;;
69623;SDS011;56843;52.020;5.670;2022-11-20T07:37:18;0.90;;;0.40;;
69623;SDS011;56843;52.020;5.670;2022-11-20T07:38:49;7.32;;;2.67;;
69623;SDS011;56843;52.020;5.670;2022-11-20T07:40:20;4.53;;;1.97;;
69623;SDS011;56843;52.020;5.670;2022-11-20T07:41:50;8.52;;;3.20;;
69623;SDS011;56843;52.020;5.670;2022-11-20T07:43:21;8.80;;;3.27;;
69623;SDS011;56843;52.020;5.670;2022-11-20T07:44:51;7.00;;;3.45;;
69623;SDS011;56843;52.020;5.670;2022-11-20T07:46:22;4.70;;;2.57;;
69623;SDS011;56843;52.020;5.670;2022-11-20T07:47:53;8.47;;;3.50;;
69623;SDS011;56843;52.020;5.670;2022-11-20T07:49:23;6.47;;;2.80;;
69623;SDS011;56843;52.020;5.670;2022-11-20T07:50:57;6.93;;;2.30;;
69623;SDS011;56843;52.020;5.670;2022-11-20T07:52:29;8.32;;;3.85;;
69623;SDS011;56843;52.020;5.670;2022-11-20T07:53:59;9.70;;;2.40;;
69623;SDS011;56843;52.020;5.670;2022-11-20T07:55:30;8.50;;;3.57;;
69623;SDS011;56843;52.020;5.670;2022-11-20T07:57:01;9.50;;;3.72;;
69623;SDS011;56843;52.020;5.670;2022-11-20T07:58:32;7.47;;;2.80;;
69623;SDS011;56843;52.020;5.670;2022-11-20T08:00:05;7.00;;;2.30;;
69623;SDS011;56843;52.020;5.670;2022-11-20T08:01:44;8.15;;;3.10;;
69623;SDS011;56843;52.020;5.670;2022-11-20T08:03:15;9.77;;;4.05;;
69623;SDS011;56843;52.020;5.670;2022-11-20T08:04:46;5.30;;;2.57;;
69623;SDS011;56843;52.020;5.670;2022-11-20T08:06:16;10.65;;;4.18;;
69623;SDS011;56843;52.020;5.670;2022-11-20T08:07:48;6.33;;;3.20;;
69623;SDS011;56843;52.020;5.670;2022-11-20T08:09:22;16.25;;;3.72;;
69623;SDS011;56843;52.020;5.670;2022-11-20T08:10:53;6.10;;;3.13;;
69623;SDS011;56843;52.020;5.670;2022-11-20T08:12:45;13.82;;;5.22;;
69623;SDS011;56843;52.020;5.670;2022-11-20T08:14:34;11.20;;;4.80;;
69623;SDS011;56843;52.020;5.670;2022-11-20T08:16:07;4.90;;;2.60;;
69623;SDS011;56843;52.020;5.670;2022-11-20T08:17:38;3.08;;;0.60;;
69623;SDS011;56843;52.020;5.670;2022-11-20T08:19:09;12.77;;;4.97;;
69623;SDS011;56843;52.020;5.670;2022-11-20T08:20:41;8.45;;;4.10;;
69623;SDS011;56843;52.020;5.670;2022-11-20T08:22:36;6.13;;;2.55;;
69623;SDS011;56843;52.020;5.670;2022-11-20T08:24:07;8.77;;;2.90;;
69623;SDS011;56843;52.020;5.670;2022-11-20T08:25:38;6.53;;;2.95;;
69623;SDS011;56843;52.020;5.670;2022-11-20T08:27:09;4.38;;;2.03;;
69623;SDS011;56843;52.020;5.670;2022-11-20T08:28:39;14.53;;;5.50;;
69623;SDS011;56843;52.020;5.670;2022-11-20T08:30:10;9.13;;;4.57;;
69623;SDS011;56843;52.020;5.670;2022-11-20T08:31:44;13.00;;;5.33;;
69623;SDS011;56843;52.020;5.670;2022-11-20T08:33:21;9.43;;;3.92;;
69623;SDS011;56843;52.020;5.670;2022-11-20T08:34:52;10.23;;;4.38;;
69623;SDS011;56843;52.020;5.670;2022-11-20T08:36:23;9.43;;;4.27;;
69623;SDS011;56843;52.020;5.670;2022-11-20T08:37:57;15.68;;;6.50;;
69623;SDS011;56843;52.020;5.670;2022-11-20T08:39:27;12.23;;;5.55;;
69623;SDS011;56843;52.020;5.670;2022-11-20T08:41:02;11.07;;;4.80;;
69623;SDS011;56843;52.020;5.670;2022-11-20T08:42:55;12.80;;;5.50;;
69623;SDS011;56843;52.020;5.670;2022-11-20T08:44:26;13.87;;;5.70;;
69623;SDS011;56843;52.020;5.670;2022-11-20T08:45:57;14.50;;;5.67;;
69623;SDS011;56843;52.020;5.670;2022-11-20T08:47:27;12.43;;;5.22;;
69623;SDS011;56843;52.020;5.670;2022-11-20T08:49:01;15.37;;;6.60;;
69623;SDS011;56843;52.020;5.670;2022-11-20T08:50:32;14.48;;;5.00;;
69623;SDS011;56843;52.020;5.670;2022-11-20T08:52:02;12.23;;;5.60;;
69623;SDS011;56843;52.020;5.670;2022-11-20T08:53:33;16.17;;;8.15;;
69623;SDS011;56843;52.020;5.670;2022-11-20T08:55:04;11.63;;;6.00;;
69623;SDS011;56843;52.020;5.670;2022-11-20T08:56:35;21.55;;;7.63;;
69623;SDS011;56843;52.020;5.670;2022-11-20T08:58:06;17.92;;;7.07;;
69623;SDS011;56843;52.020;5.670;2022-11-20T08:59:37;19.03;;;7.40;;
69623;SDS011;56843;52.020;5.670;2022-11-20T09:01:08;18.20;;;7.40;;
69623;SDS011;56843;52.020;5.670;2022-11-20T09:02:38;20.73;;;8.53;;
69623;SDS011;56843;52.020;5.670;2022-11-20T09:04:09;18.25;;;8.05;;
69623;SDS011;56843;52.020;5.670;2022-11-20T09:05:39;20.43;;;9.00;;
69623;SDS011;56843;52.020;5.670;2022-11-20T09:07:10;14.80;;;7.23;;
69623;SDS011;56843;52.020;5.670;2022-11-20T09:08:40;16.25;;;7.80;;
69623;SDS011;56843;52.020;5.670;2022-11-20T09:10:11;15.32;;;6.47;;
69623;SDS011;56843;52.020;5.670;2022-11-20T09:11:42;17.57;;;8.53;;
69623;SDS011;56843;52.020;5.670;2022-11-20T09:13:12;17.57;;;8.03;;
69623;SDS011;56843;52.020;5.670;2022-11-20T09:14:46;14.07;;;7.00;;
69623;SDS011;56843;52.020;5.670;2022-11-20T09:16:22;12.73;;;6.22;;
69623;SDS011;56843;52.020;5.670;2022-11-20T09:18:04;12.50;;;5.05;;
69623;SDS011;56843;52.020;5.670;2022-11-20T09:19:37;15.75;;;6.28;;
69623;SDS011;56843;52.020;5.670;2022-11-20T09:21:09;18.30;;;8.40;;